sensor_id;sensor_type;location;lat;lon;timestamp;temperature;humidity
19536;HTU21D;9913;51.168;4.124;2023-04-24T00:00:40;9.03;61.67
19536;HTU21D;9913;51.168;4.124;2023-04-24T00:03:09;9.11;61.50
19536;HTU21D;9913;51.168;4.124;2023-04-24T00:05:38;9.10;61.48
19536;HTU21D;9913;51.168;4.124;2023-04-24T00:08:08;9.12;61.80
19536;HTU21D;9913;51.168;4.124;2023-04-24T00:10:36;9.07;61.81
19536;HTU21D;9913;51.168;4.124;2023-04-24T00:13:06;9.10;62.02
19536;HTU21D;9913;51.168;4.124;2023-04-24T00:15:35;9.05;62.08
19536;HTU21D;9913;51.168;4.124;2023-04-24T00:18:03;9.05;62.23
19536;HTU21D;9913;51.168;4.124;2023-04-24T00:20:32;9.10;61.97
19536;HTU21D;9913;51.168;4.124;2023-04-24T00:23:02;9.09;61.63
19536;HTU21D;9913;51.168;4.124;2023-04-24T00:25:30;9.03;61.75
19536;HTU21D;9913;51.168;4.124;2023-04-24T00:27:59;9.03;61.59
19536;HTU21D;9913;51.168;4.124;2023-04-24T00:30:29;9.00;62.08
19536;HTU21D;9913;51.168;4.124;2023-04-24T00:32:57;9.00;62.12
19536;HTU21D;9913;51.168;4.124;2023-04-24T00:35:25;9.04;62.22
19536;HTU21D;9913;51.168;4.124;2023-04-24T00:37:54;8.96;62.12
19536;HTU21D;9913;51.168;4.124;2023-04-24T00:40:22;9.03;62.02
19536;HTU21D;9913;51.168;4.124;2023-04-24T00:42:50;8.96;62.29
19536;HTU21D;9913;51.168;4.124;2023-04-24T00:45:19;9.00;62.12
19536;HTU21D;9913;51.168;4.124;2023-04-24T00:47:50;8.95;62.32
19536;HTU21D;9913;51.168;4.124;2023-04-24T00:50:21;8.91;61.86
19536;HTU21D;9913;51.168;4.124;2023-04-24T00:52:50;8.88;61.95
19536;HTU21D;9913;51.168;4.124;2023-04-24T00:55:19;8.85;62.41
19536;HTU21D;9913;51.168;4.124;2023-04-24T00:57:48;8.83;62.45
19536;HTU21D;9913;51.168;4.124;2023-04-24T01:00:18;8.87;62.35
19536;HTU21D;9913;51.168;4.124;2023-04-24T01:02:48;8.96;62.21
19536;HTU21D;9913;51.168;4.124;2023-04-24T01:05:19;8.94;62.16
19536;HTU21D;9913;51.168;4.124;2023-04-24T01:07:47;8.93;61.84
19536;HTU21D;9913;51.168;4.124;2023-04-24T01:10:16;8.98;61.58
19536;HTU21D;9913;51.168;4.124;2023-04-24T01:12:47;8.98;61.83
19536;HTU21D;9913;51.168;4.124;2023-04-24T01:15:15;9.07;61.18
19536;HTU21D;9913;51.168;4.124;2023-04-24T01:17:44;9.08;61.35
19536;HTU21D;9913;51.168;4.124;2023-04-24T01:20:15;9.04;61.52
19536;HTU21D;9913;51.168;4.124;2023-04-24T01:22:45;9.04;61.19
19536;HTU21D;9913;51.168;4.124;2023-04-24T01:25:14;9.04;61.28
19536;HTU21D;9913;51.168;4.124;2023-04-24T01:27:43;9.02;61.56
19536;HTU21D;9913;51.168;4.124;2023-04-24T01:30:12;8.98;61.76
19536;HTU21D;9913;51.168;4.124;2023-04-24T01:32:41;9.06;61.50
19536;HTU21D;9913;51.168;4.124;2023-04-24T01:35:11;9.00;61.18
19536;HTU21D;9913;51.168;4.124;2023-04-24T01:37:40;9.01;61.45
19536;HTU21D;9913;51.168;4.124;2023-04-24T01:40:10;9.04;61.28
19536;HTU21D;9913;51.168;4.124;2023-04-24T01:42:41;9.05;61.42
19536;HTU21D;9913;51.168;4.124;2023-04-24T01:45:11;9.04;61.34
19536;HTU21D;9913;51.168;4.124;2023-04-24T01:47:39;9.02;61.35
19536;HTU21D;9913;51.168;4.124;2023-04-24T01:50:09;9.04;61.54
19536;HTU21D;9913;51.168;4.124;2023-04-24T01:52:38;9.06;61.38
19536;HTU21D;9913;51.168;4.124;2023-04-24T01:55:10;9.04;61.32
19536;HTU21D;9913;51.168;4.124;2023-04-24T01:57:39;9.02;61.79
19536;HTU21D;9913;51.168;4.124;2023-04-24T02:00:08;8.98;61.67
19536;HTU21D;9913;51.168;4.124;2023-04-24T02:02:41;8.96;61.99
19536;HTU21D;9913;51.168;4.124;2023-04-24T02:05:13;8.95;62.09
19536;HTU21D;9913;51.168;4.124;2023-04-24T02:07:41;8.95;62.64
19536;HTU21D;9913;51.168;4.124;2023-04-24T02:10:11;8.91;63.18
19536;HTU21D;9913;51.168;4.124;2023-04-24T02:12:42;8.80;63.81
19536;HTU21D;9913;51.168;4.124;2023-04-24T02:15:11;8.78;64.65
19536;HTU21D;9913;51.168;4.124;2023-04-24T02:17:39;8.70;65.23
19536;HTU21D;9913;51.168;4.124;2023-04-24T02:20:08;8.68;65.89
19536;HTU21D;9913;51.168;4.124;2023-04-24T02:22:38;8.68;66.46
19536;HTU21D;9913;51.168;4.124;2023-04-24T02:25:06;8.58;66.56
19536;HTU21D;9913;51.168;4.124;2023-04-24T02:27:36;8.58;66.85
19536;HTU21D;9913;51.168;4.124;2023-04-24T02:30:07;8.63;67.81
19536;HTU21D;9913;51.168;4.124;2023-04-24T02:32:35;8.62;68.34
19536;HTU21D;9913;51.168;4.124;2023-04-24T02:35:04;8.57;68.33
19536;HTU21D;9913;51.168;4.124;2023-04-24T02:37:33;8.55;69.20
19536;HTU21D;9913;51.168;4.124;2023-04-24T02:40:02;8.53;69.94
19536;HTU21D;9913;51.168;4.124;2023-04-24T02:42:30;8.58;70.87
19536;HTU21D;9913;51.168;4.124;2023-04-24T02:45:01;8.55;71.57
19536;HTU21D;9913;51.168;4.124;2023-04-24T02:47:30;8.48;71.96
19536;HTU21D;9913;51.168;4.124;2023-04-24T02:49:59;8.50;72.57
19536;HTU21D;9913;51.168;4.124;2023-04-24T02:52:28;8.44;72.22
19536;HTU21D;9913;51.168;4.124;2023-04-24T02:54:56;8.48;72.68
19536;HTU21D;9913;51.168;4.124;2023-04-24T02:57:24;8.45;72.98
19536;HTU21D;9913;51.168;4.124;2023-04-24T02:59:53;8.37;72.93
19536;HTU21D;9913;51.168;4.124;2023-04-24T03:02:22;8.41;73.03
19536;HTU21D;9913;51.168;4.124;2023-04-24T03:04:51;8.43;72.84
19536;HTU21D;9913;51.168;4.124;2023-04-24T03:07:20;8.50;73.03
19536;HTU21D;9913;51.168;4.124;2023-04-24T03:09:48;8.47;72.87
19536;HTU21D;9913;51.168;4.124;2023-04-24T03:12:17;8.49;72.75
19536;HTU21D;9913;51.168;4.124;2023-04-24T03:14:45;8.46;72.19
19536;HTU21D;9913;51.168;4.124;2023-04-24T03:17:14;8.53;71.93
19536;HTU21D;9913;51.168;4.124;2023-04-24T03:19:44;8.51;71.34
19536;HTU21D;9913;51.168;4.124;2023-04-24T03:22:12;8.48;70.14
19536;HTU21D;9913;51.168;4.124;2023-04-24T03:24:41;8.48;69.78
19536;HTU21D;9913;51.168;4.124;2023-04-24T03:27:10;8.45;69.65
19536;HTU21D;9913;51.168;4.124;2023-04-24T03:29:54;8.39;69.16
19536;HTU21D;9913;51.168;4.124;2023-04-24T03:32:31;8.38;69.33
19536;HTU21D;9913;51.168;4.124;2023-04-24T03:35:02;8.45;70.07
19536;HTU21D;9913;51.168;4.124;2023-04-24T03:37:31;8.43;70.71
19536;HTU21D;9913;51.168;4.124;2023-04-24T03:40:16;8.42;70.85
19536;HTU21D;9913;51.168;4.124;2023-04-24T03:42:45;8.35;70.55
19536;HTU21D;9913;51.168;4.124;2023-04-24T03:45:13;8.36;70.98
19536;HTU21D;9913;51.168;4.124;2023-04-24T03:47:46;8.34;71.25
19536;HTU21D;9913;51.168;4.124;2023-04-24T03:50:16;8.29;71.03
19536;HTU21D;9913;51.168;4.124;2023-04-24T03:52:45;8.33;71.96
19536;HTU21D;9913;51.168;4.124;2023-04-24T03:55:23;8.32;71.88
19536;HTU21D;9913;51.168;4.124;2023-04-24T03:57:53;8.32;72.23
19536;HTU21D;9913;51.168;4.124;2023-04-24T04:00:22;8.26;72.47
19536;HTU21D;9913;51.168;4.124;2023-04-24T04:03:08;8.20;72.54
19536;HTU21D;9913;51.168;4.124;2023-04-24T04:05:38;8.16;71.99
19536;HTU21D;9913;51.168;4.124;2023-04-24T04:08:07;8.12;71.95
19536;HTU21D;9913;51.168;4.124;2023-04-24T04:10:35;8.16;72.21
19536;HTU21D;9913;51.168;4.124;2023-04-24T04:13:04;8.08;72.00
19536;HTU21D;9913;51.168;4.124;2023-04-24T04:15:34;8.01;71.83
19536;HTU21D;9913;51.168;4.124;2023-04-24T04:18:03;8.06;72.71
19536;HTU21D;9913;51.168;4.124;2023-04-24T04:20:32;8.00;72.81
19536;HTU21D;9913;51.168;4.124;2023-04-24T04:23:02;7.94;71.93
19536;HTU21D;9913;51.168;4.124;2023-04-24T04:25:44;7.99;71.79
19536;HTU21D;9913;51.168;4.124;2023-04-24T04:28:15;8.04;72.53
19536;HTU21D;9913;51.168;4.124;2023-04-24T04:30:47;7.96;72.60
19536;HTU21D;9913;51.168;4.124;2023-04-24T04:33:16;7.88;71.76
19536;HTU21D;9913;51.168;4.124;2023-04-24T04:35:45;7.90;71.77
19536;HTU21D;9913;51.168;4.124;2023-04-24T04:38:19;7.91;71.90
19536;HTU21D;9913;51.168;4.124;2023-04-24T04:40:56;7.91;72.59
19536;HTU21D;9913;51.168;4.124;2023-04-24T04:43:29;7.94;73.30
19536;HTU21D;9913;51.168;4.124;2023-04-24T04:45:58;7.93;74.00
19536;HTU21D;9913;51.168;4.124;2023-04-24T04:48:48;7.94;74.06
19536;HTU21D;9913;51.168;4.124;2023-04-24T04:51:17;7.92;74.32
19536;HTU21D;9913;51.168;4.124;2023-04-24T04:53:47;7.91;74.29
19536;HTU21D;9913;51.168;4.124;2023-04-24T04:56:15;7.93;74.18
19536;HTU21D;9913;51.168;4.124;2023-04-24T04:58:45;7.88;73.54
19536;HTU21D;9913;51.168;4.124;2023-04-24T05:01:16;7.79;73.07
19536;HTU21D;9913;51.168;4.124;2023-04-24T05:03:47;7.84;72.48
19536;HTU21D;9913;51.168;4.124;2023-04-24T05:06:16;7.88;72.34
19536;HTU21D;9913;51.168;4.124;2023-04-24T05:08:47;7.93;72.66
19536;HTU21D;9913;51.168;4.124;2023-04-24T05:11:30;7.96;73.28
19536;HTU21D;9913;51.168;4.124;2023-04-24T05:14:00;7.77;72.16
19536;HTU21D;9913;51.168;4.124;2023-04-24T05:16:34;7.78;71.45
19536;HTU21D;9913;51.168;4.124;2023-04-24T05:19:05;7.79;71.79
19536;HTU21D;9913;51.168;4.124;2023-04-24T05:21:38;7.88;72.59
19536;HTU21D;9913;51.168;4.124;2023-04-24T05:24:09;7.87;72.90
19536;HTU21D;9913;51.168;4.124;2023-04-24T05:27:10;7.81;72.69
19536;HTU21D;9913;51.168;4.124;2023-04-24T05:29:40;7.82;73.01
19536;HTU21D;9913;51.168;4.124;2023-04-24T05:32:09;7.86;73.48
19536;HTU21D;9913;51.168;4.124;2023-04-24T05:34:37;7.84;73.77
19536;HTU21D;9913;51.168;4.124;2023-04-24T05:37:05;7.87;74.10
19536;HTU21D;9913;51.168;4.124;2023-04-24T05:39:38;7.91;74.22
19536;HTU21D;9913;51.168;4.124;2023-04-24T05:42:08;8.01;74.60
19536;HTU21D;9913;51.168;4.124;2023-04-24T05:44:36;7.98;74.39
19536;HTU21D;9913;51.168;4.124;2023-04-24T05:47:04;7.96;74.43
19536;HTU21D;9913;51.168;4.124;2023-04-24T05:49:33;7.93;74.35
19536;HTU21D;9913;51.168;4.124;2023-04-24T05:52:02;8.05;74.73
19536;HTU21D;9913;51.168;4.124;2023-04-24T05:54:32;8.01;74.72
19536;HTU21D;9913;51.168;4.124;2023-04-24T05:57:03;8.06;74.61
19536;HTU21D;9913;51.168;4.124;2023-04-24T05:59:57;8.09;74.82
19536;HTU21D;9913;51.168;4.124;2023-04-24T06:02:25;8.04;74.97
19536;HTU21D;9913;51.168;4.124;2023-04-24T06:04:54;8.06;74.44
19536;HTU21D;9913;51.168;4.124;2023-04-24T06:07:24;8.07;74.24
19536;HTU21D;9913;51.168;4.124;2023-04-24T06:09:53;8.21;74.31
19536;HTU21D;9913;51.168;4.124;2023-04-24T06:12:24;8.15;73.93
19536;HTU21D;9913;51.168;4.124;2023-04-24T06:14:59;8.19;73.15
19536;HTU21D;9913;51.168;4.124;2023-04-24T06:17:48;8.19;72.61
19536;HTU21D;9913;51.168;4.124;2023-04-24T06:20:17;8.16;71.81
19536;HTU21D;9913;51.168;4.124;2023-04-24T06:22:46;8.17;71.68
19536;HTU21D;9913;51.168;4.124;2023-04-24T06:25:14;8.09;71.38
19536;HTU21D;9913;51.168;4.124;2023-04-24T06:27:44;8.14;71.63
19536;HTU21D;9913;51.168;4.124;2023-04-24T06:30:12;8.14;71.57
19536;HTU21D;9913;51.168;4.124;2023-04-24T06:32:41;8.22;71.55
19536;HTU21D;9913;51.168;4.124;2023-04-24T06:35:09;8.22;71.11
19536;HTU21D;9913;51.168;4.124;2023-04-24T06:37:39;8.24;70.74
19536;HTU21D;9913;51.168;4.124;2023-04-24T06:40:08;8.31;70.07
19536;HTU21D;9913;51.168;4.124;2023-04-24T06:42:37;8.31;68.36
19536;HTU21D;9913;51.168;4.124;2023-04-24T06:45:09;8.28;66.92
19536;HTU21D;9913;51.168;4.124;2023-04-24T06:47:38;8.26;65.47
19536;HTU21D;9913;51.168;4.124;2023-04-24T06:50:07;8.22;64.42
19536;HTU21D;9913;51.168;4.124;2023-04-24T06:52:35;8.29;65.19
19536;HTU21D;9913;51.168;4.124;2023-04-24T06:55:04;8.29;65.30
19536;HTU21D;9913;51.168;4.124;2023-04-24T06:57:33;8.28;64.88
19536;HTU21D;9913;51.168;4.124;2023-04-24T07:00:01;8.21;64.63
19536;HTU21D;9913;51.168;4.124;2023-04-24T07:02:33;8.23;65.35
19536;HTU21D;9913;51.168;4.124;2023-04-24T07:05:01;8.15;65.84
19536;HTU21D;9913;51.168;4.124;2023-04-24T07:07:30;8.23;65.30
19536;HTU21D;9913;51.168;4.124;2023-04-24T07:09:58;8.49;65.87
19536;HTU21D;9913;51.168;4.124;2023-04-24T07:12:26;8.53;65.36
19536;HTU21D;9913;51.168;4.124;2023-04-24T07:14:54;8.67;63.76
19536;HTU21D;9913;51.168;4.124;2023-04-24T07:17:23;8.83;64.18
19536;HTU21D;9913;51.168;4.124;2023-04-24T07:19:52;9.00;63.79
19536;HTU21D;9913;51.168;4.124;2023-04-24T07:22:21;9.00;62.92
19536;HTU21D;9913;51.168;4.124;2023-04-24T07:24:49;8.92;62.70
19536;HTU21D;9913;51.168;4.124;2023-04-24T07:27:18;8.98;62.73
19536;HTU21D;9913;51.168;4.124;2023-04-24T07:29:46;9.07;62.98
19536;HTU21D;9913;51.168;4.124;2023-04-24T07:32:14;9.10;62.70
19536;HTU21D;9913;51.168;4.124;2023-04-24T07:34:42;9.04;61.75
19536;HTU21D;9913;51.168;4.124;2023-04-24T07:37:12;9.11;61.99
19536;HTU21D;9913;51.168;4.124;2023-04-24T07:39:40;9.12;61.93
19536;HTU21D;9913;51.168;4.124;2023-04-24T07:42:09;9.16;62.65
19536;HTU21D;9913;51.168;4.124;2023-04-24T07:44:37;9.05;62.58
19536;HTU21D;9913;51.168;4.124;2023-04-24T07:47:06;8.95;63.52
19536;HTU21D;9913;51.168;4.124;2023-04-24T07:49:34;8.76;64.20
19536;HTU21D;9913;51.168;4.124;2023-04-24T07:52:02;8.74;64.59
19536;HTU21D;9913;51.168;4.124;2023-04-24T07:54:32;8.87;63.72
19536;HTU21D;9913;51.168;4.124;2023-04-24T07:57:00;9.09;62.99
19536;HTU21D;9913;51.168;4.124;2023-04-24T07:59:29;9.18;61.43
19536;HTU21D;9913;51.168;4.124;2023-04-24T08:01:57;9.38;61.09
19536;HTU21D;9913;51.168;4.124;2023-04-24T08:04:25;9.16;61.03
19536;HTU21D;9913;51.168;4.124;2023-04-24T08:06:54;9.39;60.34
19536;HTU21D;9913;51.168;4.124;2023-04-24T08:09:22;10.04;60.02
19536;HTU21D;9913;51.168;4.124;2023-04-24T08:11:54;9.94;60.14
19536;HTU21D;9913;51.168;4.124;2023-04-24T08:14:23;9.95;60.40
19536;HTU21D;9913;51.168;4.124;2023-04-24T08:16:53;9.79;60.09
19536;HTU21D;9913;51.168;4.124;2023-04-24T08:19:22;9.68;60.62
19536;HTU21D;9913;51.168;4.124;2023-04-24T08:21:50;9.59;61.41
19536;HTU21D;9913;51.168;4.124;2023-04-24T08:24:18;9.49;60.68
19536;HTU21D;9913;51.168;4.124;2023-04-24T08:26:46;9.40;62.86
19536;HTU21D;9913;51.168;4.124;2023-04-24T08:29:18;9.34;61.40
19536;HTU21D;9913;51.168;4.124;2023-04-24T08:31:46;9.31;61.09
19536;HTU21D;9913;51.168;4.124;2023-04-24T08:34:15;9.30;61.59
19536;HTU21D;9913;51.168;4.124;2023-04-24T08:36:43;9.22;61.15
19536;HTU21D;9913;51.168;4.124;2023-04-24T08:39:14;9.07;60.56
19536;HTU21D;9913;51.168;4.124;2023-04-24T08:41:43;8.81;61.41
19536;HTU21D;9913;51.168;4.124;2023-04-24T08:44:12;8.72;62.08
19536;HTU21D;9913;51.168;4.124;2023-04-24T08:46:44;8.78;61.66
19536;HTU21D;9913;51.168;4.124;2023-04-24T08:49:15;9.02;61.28
19536;HTU21D;9913;51.168;4.124;2023-04-24T08:51:47;9.24;61.50
19536;HTU21D;9913;51.168;4.124;2023-04-24T08:54:16;9.37;61.13
19536;HTU21D;9913;51.168;4.124;2023-04-24T08:56:47;9.61;60.99
19536;HTU21D;9913;51.168;4.124;2023-04-24T08:59:15;10.51;61.34
19536;HTU21D;9913;51.168;4.124;2023-04-24T09:01:46;10.72;60.58
19536;HTU21D;9913;51.168;4.124;2023-04-24T09:04:16;10.58;66.32
19536;HTU21D;9913;51.168;4.124;2023-04-24T09:06:48;10.77;65.04
19536;HTU21D;9913;51.168;4.124;2023-04-24T09:09:16;10.54;66.19
19536;HTU21D;9913;51.168;4.124;2023-04-24T09:11:45;10.39;63.47
19536;HTU21D;9913;51.168;4.124;2023-04-24T09:14:15;10.25;65.24
19536;HTU21D;9913;51.168;4.124;2023-04-24T09:16:46;10.31;63.53
19536;HTU21D;9913;51.168;4.124;2023-04-24T09:19:14;10.69;61.13
19536;HTU21D;9913;51.168;4.124;2023-04-24T09:21:46;10.30;66.36
19536;HTU21D;9913;51.168;4.124;2023-04-24T09:24:15;10.43;62.73
19536;HTU21D;9913;51.168;4.124;2023-04-24T09:26:45;10.65;67.58
19536;HTU21D;9913;51.168;4.124;2023-04-24T09:29:16;10.45;66.66
19536;HTU21D;9913;51.168;4.124;2023-04-24T09:31:46;10.52;65.81
19536;HTU21D;9913;51.168;4.124;2023-04-24T09:34:21;10.41;67.40
19536;HTU21D;9913;51.168;4.124;2023-04-24T09:36:50;10.72;66.58
19536;HTU21D;9913;51.168;4.124;2023-04-24T09:39:19;10.81;67.39
19536;HTU21D;9913;51.168;4.124;2023-04-24T09:41:48;10.59;68.04
19536;HTU21D;9913;51.168;4.124;2023-04-24T09:44:19;10.43;67.47
19536;HTU21D;9913;51.168;4.124;2023-04-24T09:46:51;10.44;63.54
19536;HTU21D;9913;51.168;4.124;2023-04-24T09:49:22;10.41;66.63
19536;HTU21D;9913;51.168;4.124;2023-04-24T09:51:51;10.85;67.39
19536;HTU21D;9913;51.168;4.124;2023-04-24T09:54:21;11.59;66.07
19536;HTU21D;9913;51.168;4.124;2023-04-24T09:56:50;11.58;67.77
19536;HTU21D;9913;51.168;4.124;2023-04-24T09:59:19;11.13;67.28
19536;HTU21D;9913;51.168;4.124;2023-04-24T10:01:48;11.05;68.43
19536;HTU21D;9913;51.168;4.124;2023-04-24T10:04:20;11.17;67.43
19536;HTU21D;9913;51.168;4.124;2023-04-24T10:06:51;11.14;68.38
19536;HTU21D;9913;51.168;4.124;2023-04-24T10:09:21;11.15;65.95
19536;HTU21D;9913;51.168;4.124;2023-04-24T10:11:51;11.30;70.99
19536;HTU21D;9913;51.168;4.124;2023-04-24T10:14:22;10.96;68.81
19536;HTU21D;9913;51.168;4.124;2023-04-24T10:16:53;10.84;67.64
19536;HTU21D;9913;51.168;4.124;2023-04-24T10:19:25;10.71;68.22
19536;HTU21D;9913;51.168;4.124;2023-04-24T10:21:54;10.60;67.17
19536;HTU21D;9913;51.168;4.124;2023-04-24T10:24:24;10.79;66.72
19536;HTU21D;9913;51.168;4.124;2023-04-24T10:26:52;10.95;66.55
19536;HTU21D;9913;51.168;4.124;2023-04-24T10:29:21;10.95;69.58
19536;HTU21D;9913;51.168;4.124;2023-04-24T10:31:49;10.74;67.05
19536;HTU21D;9913;51.168;4.124;2023-04-24T10:34:18;10.60;66.18
19536;HTU21D;9913;51.168;4.124;2023-04-24T10:36:51;11.05;68.62
19536;HTU21D;9913;51.168;4.124;2023-04-24T10:39:24;11.91;68.10
19536;HTU21D;9913;51.168;4.124;2023-04-24T10:41:55;12.34;68.92
19536;HTU21D;9913;51.168;4.124;2023-04-24T10:44:24;12.85;70.87
19536;HTU21D;9913;51.168;4.124;2023-04-24T10:46:55;12.74;66.85
19536;HTU21D;9913;51.168;4.124;2023-04-24T10:49:28;11.92;68.87
19536;HTU21D;9913;51.168;4.124;2023-04-24T10:52:02;12.65;66.93
19536;HTU21D;9913;51.168;4.124;2023-04-24T10:54:35;12.84;69.80
19536;HTU21D;9913;51.168;4.124;2023-04-24T10:57:26;12.28;69.21
19536;HTU21D;9913;51.168;4.124;2023-04-24T11:00:16;11.74;69.55
19536;HTU21D;9913;51.168;4.124;2023-04-24T11:02:47;11.26;63.15
19536;HTU21D;9913;51.168;4.124;2023-04-24T11:05:21;10.90;68.02
19536;HTU21D;9913;51.168;4.124;2023-04-24T11:08:11;11.25;68.67
19536;HTU21D;9913;51.168;4.124;2023-04-24T11:10:40;11.52;66.62
19536;HTU21D;9913;51.168;4.124;2023-04-24T11:13:15;11.51;66.59
19536;HTU21D;9913;51.168;4.124;2023-04-24T11:15:44;12.80;65.07
19536;HTU21D;9913;51.168;4.124;2023-04-24T11:18:14;12.30;69.55
19536;HTU21D;9913;51.168;4.124;2023-04-24T11:20:43;13.65;70.72
19536;HTU21D;9913;51.168;4.124;2023-04-24T11:23:13;13.32;66.85
19536;HTU21D;9913;51.168;4.124;2023-04-24T11:25:42;13.09;67.55
19536;HTU21D;9913;51.168;4.124;2023-04-24T11:28:14;12.48;65.56
19536;HTU21D;9913;51.168;4.124;2023-04-24T11:30:43;12.20;67.74
19536;HTU21D;9913;51.168;4.124;2023-04-24T11:33:11;11.81;67.72
19536;HTU21D;9913;51.168;4.124;2023-04-24T11:35:47;11.69;68.92
19536;HTU21D;9913;51.168;4.124;2023-04-24T11:38:17;11.76;69.85
19536;HTU21D;9913;51.168;4.124;2023-04-24T11:40:52;11.68;68.90
19536;HTU21D;9913;51.168;4.124;2023-04-24T11:43:21;11.66;68.69
19536;HTU21D;9913;51.168;4.124;2023-04-24T11:45:49;11.71;63.45
19536;HTU21D;9913;51.168;4.124;2023-04-24T11:48:19;11.59;68.37
19536;HTU21D;9913;51.168;4.124;2023-04-24T11:50:50;11.51;71.05
19536;HTU21D;9913;51.168;4.124;2023-04-24T11:53:20;12.72;70.98
19536;HTU21D;9913;51.168;4.124;2023-04-24T11:55:49;12.91;67.46
19536;HTU21D;9913;51.168;4.124;2023-04-24T11:58:20;13.19;65.94
19536;HTU21D;9913;51.168;4.124;2023-04-24T12:00:56;12.69;64.79
19536;HTU21D;9913;51.168;4.124;2023-04-24T12:03:25;12.99;69.52
19536;HTU21D;9913;51.168;4.124;2023-04-24T12:06:04;13.78;69.23
19536;HTU21D;9913;51.168;4.124;2023-04-24T12:08:36;12.93;64.45
19536;HTU21D;9913;51.168;4.124;2023-04-24T12:11:06;13.51;68.30
19536;HTU21D;9913;51.168;4.124;2023-04-24T12:13:35;13.66;68.30
19536;HTU21D;9913;51.168;4.124;2023-04-24T12:16:04;13.49;67.36
19536;HTU21D;9913;51.168;4.124;2023-04-24T12:18:45;13.75;67.92
19536;HTU21D;9913;51.168;4.124;2023-04-24T12:21:20;13.06;71.22
19536;HTU21D;9913;51.168;4.124;2023-04-24T12:23:50;12.89;69.16
19536;HTU21D;9913;51.168;4.124;2023-04-24T12:26:22;12.46;67.75
19536;HTU21D;9913;51.168;4.124;2023-04-24T12:28:51;12.60;69.40
19536;HTU21D;9913;51.168;4.124;2023-04-24T12:31:20;12.34;68.42
19536;HTU21D;9913;51.168;4.124;2023-04-24T12:33:49;12.30;69.39
19536;HTU21D;9913;51.168;4.124;2023-04-24T12:36:17;12.63;69.33
19536;HTU21D;9913;51.168;4.124;2023-04-24T12:38:46;12.46;69.49
19536;HTU21D;9913;51.168;4.124;2023-04-24T12:41:16;12.35;69.74
19536;HTU21D;9913;51.168;4.124;2023-04-24T12:43:53;11.91;70.29
19536;HTU21D;9913;51.168;4.124;2023-04-24T12:46:22;12.22;70.99
19536;HTU21D;9913;51.168;4.124;2023-04-24T12:48:50;12.56;70.29
19536;HTU21D;9913;51.168;4.124;2023-04-24T12:51:19;12.87;71.22
19536;HTU21D;9913;51.168;4.124;2023-04-24T12:53:47;13.86;68.94
19536;HTU21D;9913;51.168;4.124;2023-04-24T12:56:17;12.61;69.55
19536;HTU21D;9913;51.168;4.124;2023-04-24T12:58:45;12.26;68.43
19536;HTU21D;9913;51.168;4.124;2023-04-24T13:01:13;13.01;69.71
19536;HTU21D;9913;51.168;4.124;2023-04-24T13:03:42;13.35;68.75
19536;HTU21D;9913;51.168;4.124;2023-04-24T13:06:11;14.09;103.26
19536;HTU21D;9913;51.168;4.124;2023-04-24T13:08:39;14.52;117.99
19536;HTU21D;9913;51.168;4.124;2023-04-24T13:11:07;14.78;118.15
19536;HTU21D;9913;51.168;4.124;2023-04-24T13:13:37;14.83;118.55
19536;HTU21D;9913;51.168;4.124;2023-04-24T13:16:06;15.72;-3.90
19536;HTU21D;9913;51.168;4.124;2023-04-24T13:18:34;14.45;117.26
19536;HTU21D;9913;51.168;4.124;2023-04-24T13:21:03;13.85;-3.44
19536;HTU21D;9913;51.168;4.124;2023-04-24T13:23:31;13.80;-5.17
19536;HTU21D;9913;51.168;4.124;2023-04-24T13:25:59;14.47;117.99
19536;HTU21D;9913;51.168;4.124;2023-04-24T13:28:28;13.78;-5.53
19536;HTU21D;9913;51.168;4.124;2023-04-24T13:30:58;13.36;-2.92
19536;HTU21D;9913;51.168;4.124;2023-04-24T13:33:26;13.27;-2.79
19536;HTU21D;9913;51.168;4.124;2023-04-24T13:35:54;13.27;-3.81
19536;HTU21D;9913;51.168;4.124;2023-04-24T13:38:23;13.63;-3.02
19536;HTU21D;9913;51.168;4.124;2023-04-24T13:40:51;14.48;-5.05
19536;HTU21D;9913;51.168;4.124;2023-04-24T13:43:19;14.05;118.66
19536;HTU21D;9913;51.168;4.124;2023-04-24T13:45:47;15.09;-2.10
19536;HTU21D;9913;51.168;4.124;2023-04-24T13:48:17;14.73;117.66
19536;HTU21D;9913;51.168;4.124;2023-04-24T13:50:46;14.28;117.37
19536;HTU21D;9913;51.168;4.124;2023-04-24T13:53:15;14.56;118.95
19536;HTU21D;9913;51.168;4.124;2023-04-24T13:55:43;13.74;117.98
19536;HTU21D;9913;51.168;4.124;2023-04-24T13:58:12;12.84;-4.70
19536;HTU21D;9913;51.168;4.124;2023-04-24T14:00:40;13.76;-2.64
19536;HTU21D;9913;51.168;4.124;2023-04-24T14:03:08;14.09;-3.50
19536;HTU21D;9913;51.168;4.124;2023-04-24T14:05:40;13.52;-3.43
19536;HTU21D;9913;51.168;4.124;2023-04-24T14:08:08;13.90;-4.17
19536;HTU21D;9913;51.168;4.124;2023-04-24T14:10:36;13.23;-1.51
19536;HTU21D;9913;51.168;4.124;2023-04-24T14:13:05;13.73;-2.89
19536;HTU21D;9913;51.168;4.124;2023-04-24T14:15:35;14.12;-2.68
19536;HTU21D;9913;51.168;4.124;2023-04-24T14:18:03;15.22;-4.61
19536;HTU21D;9913;51.168;4.124;2023-04-24T14:20:32;13.38;-4.54
19536;HTU21D;9913;51.168;4.124;2023-04-24T14:23:02;14.56;118.89
19536;HTU21D;9913;51.168;4.124;2023-04-24T14:25:30;14.22;-5.77
19536;HTU21D;9913;51.168;4.124;2023-04-24T14:27:59;14.85;-5.68
19536;HTU21D;9913;51.168;4.124;2023-04-24T14:30:27;15.69;113.13
19536;HTU21D;9913;51.168;4.124;2023-04-24T14:32:55;16.14;110.84
19536;HTU21D;9913;51.168;4.124;2023-04-24T14:35:24;15.51;108.43
19536;HTU21D;9913;51.168;4.124;2023-04-24T14:37:54;14.86;112.97
19536;HTU21D;9913;51.168;4.124;2023-04-24T14:40:23;14.68;114.81
19536;HTU21D;9913;51.168;4.124;2023-04-24T14:42:55;15.26;105.50
19536;HTU21D;9913;51.168;4.124;2023-04-24T14:45:24;16.11;106.79
19536;HTU21D;9913;51.168;4.124;2023-04-24T14:47:52;16.87;108.87
19536;HTU21D;9913;51.168;4.124;2023-04-24T14:50:21;16.26;108.92
19536;HTU21D;9913;51.168;4.124;2023-04-24T14:52:50;15.93;108.32
19536;HTU21D;9913;51.168;4.124;2023-04-24T14:55:19;16.11;109.99
19536;HTU21D;9913;51.168;4.124;2023-04-24T14:57:48;17.20;108.89
19536;HTU21D;9913;51.168;4.124;2023-04-24T15:00:18;17.59;100.29
19536;HTU21D;9913;51.168;4.124;2023-04-24T15:02:47;16.85;103.00
19536;HTU21D;9913;51.168;4.124;2023-04-24T15:05:15;15.53;102.05
19536;HTU21D;9913;51.168;4.124;2023-04-24T15:07:45;14.18;107.53
19536;HTU21D;9913;51.168;4.124;2023-04-24T15:10:13;13.80;112.13
19536;HTU21D;9913;51.168;4.124;2023-04-24T15:12:41;12.88;110.18
19536;HTU21D;9913;51.168;4.124;2023-04-24T15:15:11;12.90;115.99
19536;HTU21D;9913;51.168;4.124;2023-04-24T15:17:39;13.07;114.88
19536;HTU21D;9913;51.168;4.124;2023-04-24T15:20:08;13.27;116.47
19536;HTU21D;9913;51.168;4.124;2023-04-24T15:22:37;12.69;113.98
19536;HTU21D;9913;51.168;4.124;2023-04-24T15:25:06;12.73;116.33
19536;HTU21D;9913;51.168;4.124;2023-04-24T15:27:41;12.72;114.72
19536;HTU21D;9913;51.168;4.124;2023-04-24T15:30:12;12.66;116.01
19536;HTU21D;9913;51.168;4.124;2023-04-24T15:32:41;12.72;116.92
19536;HTU21D;9913;51.168;4.124;2023-04-24T15:35:10;12.97;116.60
19536;HTU21D;9913;51.168;4.124;2023-04-24T15:37:38;14.06;114.77
19536;HTU21D;9913;51.168;4.124;2023-04-24T15:40:07;14.65;113.80
19536;HTU21D;9913;51.168;4.124;2023-04-24T15:42:38;13.39;114.86
19536;HTU21D;9913;51.168;4.124;2023-04-24T15:45:07;13.01;114.50
19536;HTU21D;9913;51.168;4.124;2023-04-24T15:47:37;13.03;116.22
19536;HTU21D;9913;51.168;4.124;2023-04-24T15:50:08;13.84;115.86
19536;HTU21D;9913;51.168;4.124;2023-04-24T15:52:40;13.02;115.77
19536;HTU21D;9913;51.168;4.124;2023-04-24T15:55:09;13.01;117.72